Tiempo atmosférico en la estación meteorológica de Fuente De Cantos, Badajoz (602 m.)



Fecha
DESCASC
Temp. máxima en grados centígrados (hora)
DESCASC
Temp. mínima en grados centígrados (hora)
DESCASC
Temp. media en grados centígrados
DESCASC
Racha de viento máxima en m/sg (hora)
DESCASC
Velocidad máxima media en intervalos de 10 minutos(hora)
DESCASC
Precipitaciones diarias en mm
DESCASC
Precipitaciones de 00:00 a 06:00 en mm
DESCASC
Precipitaciones de 06:00 a 12:00 en mm
DESCASC
Precipitaciones de 12:00 a 18:00 en mm
DESCASC
Precipitaciones de 18:00 a 24:00 en mm
DESCASC
16-01-2020 14.6 (16:00) 6.8 (08:50) 10.7 11.67 (14:40) 8.61 (14:00) 0 0 0 0 0
15-01-2020 12.8 (14:30) 6.3 (04:50) 9.6 11.94 (02:20) 9.72 (02:10) 0.2 0 0 0 0.2
14-01-2020 11.1 (14:00) 3.7 (05:30) 7.4 11.11 (23:59) 7.5 (23:40) 0 0 0 0 0
13-01-2020 12 (15:00) 4.2 (23:40) 8.1 6.94 (14:10) 4.17 (04:20) 0 0 0 0 0
12-01-2020 12.7 (16:30) 5 (00:00) 8.8 4.72 (17:20) 3.89 (17:20) 0 0 0 0 0
11-01-2020 12 (16:40) 1.6 (00:00) 6.8 8.61 (10:50) 6.67 (11:00) 0 0 0 0 0
10-01-2020 11.2 (15:30) 2.8 (00:00) 7 8.06 (10:40) 6.67 (10:50) 0 0 0 0 0
09-01-2020 13.1 (17:00) 5.6 (00:00) 9.4 5.28 (14:20) 3.61 (20:10) 0 0 0 0 0
08-01-2020 17.3 (16:30) 6.9 (00:00) 12.1 3.89 (19:10) 3.33 (19:10) 0 0 0 0 0
07-01-2020 15.5 (16:00) 4.2 (00:00) 9.8 6.67 (05:30) 5.83 (05:30) 0 0 0 0 0
06-01-2020 14.6 (15:30) 4.4 (00:00) 9.5 4.72 (21:30) 4.17 (21:30) 0 0 0 0 0
05-01-2020 12.6 (16:30) 3.3 (00:00) 8 6.11 (03:40) 5.28 (03:40) 0 0 0 0 0
04-01-2020 10.8 (15:40) 2.6 (00:00) 6.7 8.06 (12:20) 6.39 (12:30) 0 0 0 0 0
03-01-2020 10.6 (16:00) 6.3 (00:00) 8.5 7.5 (15:20) 5 (16:10) 0 0 0 0 0
02-01-2020 13.7 (15:10) 6.4 (00:00) 10 4.72 (15:40) 3.61 (05:30) 0 0 0 0 0
01-01-2020 16.6 (16:30) 5.9 (00:00) 11.3 4.17 (01:30) 3.61 (01:00) 0 0 0 0 0
31-12-2019 15.9 (15:10) 6.6 (00:00) 11.2 6.11 (11:40) 4.44 (01:50) 0 0 0 0 0
30-12-2019 15.4 (15:50) 4.5 (00:00) 9.9 6.11 (07:40) 5.56 (07:20) 0 0 0 0 0
29-12-2019 17.9 (15:50) 10 (00:00) 13.9 8.61 (04:00) 7.22 (04:10) 0 0 0 0 0
28-12-2019 19.6 (16:00) 9.2 (00:00) 14.4 8.06 (08:20) 6.67 (09:00) 0 0 0 0 0
27-12-2019 18.9 (15:00) 9.2 (00:00) 14 8.61 (04:00) 7.22 (03:50) 0 0 0 0 0
26-12-2019 15.5 (13:40) 9.9 (00:00) 12.7 6.11 (15:30) 5.28 (15:40) 0 0 0 0 0
25-12-2019 20.4 (16:00) 12 (00:00) 16.2 8.06 (05:10) 7.22 (02:20) 0 0 0 0 0
24-12-2019 20.7 (15:40) 11.7 (00:00) 16.2 8.33 (09:00) 7.22 (08:20) 0 0 0 0 0
23-12-2019 16.3 (15:40) 7.8 (00:00) 12 7.22 (23:30) 5.56 (23:30) 0 0 0 0 0
22-12-2019 14.1 (15:50) 8.7 (00:00) 11.4 15.83 (00:20) 11.67 (00:20) 0 0 0 0 0
21-12-2019 16.2 (15:10) 10.8 (00:00) 13.5 23.33 (15:50) 18.61 (15:50) 1.2 0.8 0 0.4 0
20-12-2019 15 (16:00) 13.4 (00:00) 14.2 21.39 (05:10) 17.22 (00:20) 22.6 16.2 3.4 0.6 2.4
19-12-2019 14.9 (13:20) 10.6 (01:50) 12.8 27.5 (22:50) 19.17 (22:50) 17.4 3 7 4.6 2.8

Gráficas

Temp. máximas Temp. mínimas Temp. medias Precipitaciones Rachas de viento máximas Velocidades máximas media en intervalos de 10 minutos

Datos horarios

Fecha y hora oficial Temperatura (ºC) Velocidad del viento (km/h) Dirección del viento Racha (km/h) Dirección de racha Precipitación (mm) Presión (hPa) Tendencia (hPa) Humedad (%)
2020-01-17 23:00:00 9.6 10 Sudeste 16 Sudeste 0 -- -- 80
2020-01-17 22:00:00 9.6 5 Este 8 Sudeste 0 -- -- 83
2020-01-17 21:00:00 9.4 7 Nordeste 8 Nordeste 0 -- -- 83
2020-01-17 20:00:00 10.9 4 Nordeste 6 Este 0 -- -- 76
2020-01-17 19:00:00 11.5 2 Nordeste 6 Norte 0 -- -- 74
2020-01-17 18:00:00 12.4 5 Norte 9 Norte 0 -- -- 75
2020-01-17 17:00:00 13.5 6 Norte 15 Noroeste 0 -- -- 66
2020-01-17 16:00:00 14 5 Norte 15 Noroeste 0 -- -- 66
2020-01-17 15:00:00 13.5 8 Noroeste 19 Noroeste 0 -- -- 66
2020-01-17 14:00:00 12.7 8 Noroeste 14 Noroeste 0 -- -- 68
2020-01-17 13:00:00 12 4 Sudoeste 8 Sudoeste 0 -- -- 76
2020-01-17 12:00:00 9.8 5 Sudoeste 10 Sudoeste 0 -- -- 90
2020-01-17 11:00:00 8.7 9 Sudoeste 15 Oeste 0 -- -- 97
2020-01-17 10:00:00 7.6 5 Sudoeste 17 Oeste 0 -- -- 97
2020-01-17 09:00:00 8.1 7 Oeste 10 Oeste 0 -- -- 97
2020-01-17 08:00:00 8.3 5 Sudoeste 12 Sudoeste 0 -- -- 96
2020-01-17 07:00:00 8.8 7 Sudoeste 9 Sudoeste 0 -- -- 96
2020-01-17 06:00:00 9.2 0 Calma 7 Oeste 0 -- -- 95
2020-01-17 05:00:00 9.8 5 Oeste 14 Oeste 0 -- -- 95
2020-01-17 04:00:00 10.1 6 Oeste 21 Sur 0 -- -- 94
2020-01-17 03:00:00 10.1 23 Sur 31 Sur 0.2 -- -- 93
2020-01-17 02:00:00 10.8 21 Sudoeste 34 Sudoeste 0 -- -- 86
2020-01-17 01:00:00 10.7 22 Sur 32 Sur 0 -- -- 83
2020-01-17 00:00:00 10.3 16 Sudoeste 32 Sudoeste 0 -- -- 82
2020-01-16 23:00:00 10.3 24 Sudoeste 34 Sudoeste 0 -- -- 77
2020-01-16 22:00:00 10 21 Sur 29 Sudoeste 0 -- -- 72
2020-01-16 21:00:00 10 20 Sur 29 Sur 0 -- -- 60
2020-01-16 20:00:00 9.2 19 Sur 27 Sur 0 -- -- 61
2020-01-16 19:00:00 9.6 16 Sur 30 Sur 0 -- -- 65
2020-01-16 18:00:00 11.7 20 Sur 36 Sudoeste 0 -- -- 53
2020-01-16 17:00:00 13.5 24 Sudoeste 38 Sudoeste 0 -- -- 47
2020-01-16 16:00:00 14.6 27 Sudoeste 39 Sudoeste 0 -- -- 48
2020-01-16 15:00:00 14.4 25 Sur 42 Sudoeste 0 -- -- 50
2020-01-16 14:00:00 14.2 31 Sur 41 Sur 0 -- -- 48
2020-01-16 13:00:00 12.2 22 Sudeste 29 Sudeste 0 -- -- 70
2020-01-16 12:00:00 10.7 25 Sudeste 32 Sudeste 0 -- -- 83
2020-01-16 11:00:00 8.8 24 Sudeste 33 Sudeste 0 -- -- 94
2020-01-16 10:00:00 8 23 Sudeste 28 Sudeste 0 -- -- 94
2020-01-16 09:00:00 6.8 22 Sudeste 26 Sudeste 0 -- -- 94
2020-01-16 08:00:00 7.1 24 Sudeste 28 Sudeste 0 -- -- 94
2020-01-16 07:00:00 7.4 19 Sudeste 23 Sudeste 0 -- -- 92
2020-01-16 06:00:00 7.8 13 Sudeste 19 Sudeste 0 -- -- 92
2020-01-16 05:00:00 8.1 16 Sudeste 23 Sudeste 0 -- -- 91
2020-01-16 04:00:00 8.3 19 Sudeste 25 Sudeste 0 -- -- 93
2020-01-16 03:00:00 8.6 17 Sudeste 21 Sudeste 0 -- -- 92
2020-01-16 02:00:00 9 17 Sudeste 24 Sudeste 0 -- -- 90
2020-01-16 01:00:00 10 18 Sur 23 Sur 0 -- -- 90
2020-01-16 00:00:00 10.4 12 Sudeste 22 Sudeste 0 -- -- 92
2020-01-15 23:00:00 10.5 14 Sudeste 25 Sudeste 0 -- -- 92
2020-01-15 22:00:00 10.1 18 Sudeste 23 Sudeste 0 -- -- 94
2020-01-15 21:00:00 10 19 Sudeste 25 Sudeste 0 -- -- 93
2020-01-15 20:00:00 9.8 17 Sudeste 24 Sudeste 0.2 -- -- 93
2020-01-15 19:00:00 9.7 16 Sudeste 25 Sudeste 0 -- -- 93
2020-01-15 18:00:00 10.1 15 Sudeste 24 Sudeste 0 -- -- 92
2020-01-15 17:00:00 10.3 21 Sudeste 27 Sur 0 -- -- 90
2020-01-15 16:00:00 10.7 22 Sur 38 Sur 0 -- -- 91
2020-01-15 15:00:00 12.2 27 Sur 38 Sudoeste 0 -- -- 83
2020-01-15 14:00:00 11.9 26 Sur 40 Sur 0 -- -- 83
2020-01-15 13:00:00 11.4 24 Sur 39 Sur 0 -- -- 84
2020-01-15 12:00:00 11.1 23 Sur 37 Sur 0 -- -- 85
2020-01-15 11:00:00 9.9 24 Sur 39 Sur 0 -- -- 88
2020-01-15 10:00:00 8.4 19 Sur 28 Sur 0 -- -- 94
2020-01-15 09:00:00 6.8 19 Sudeste 27 Sudeste 0 -- -- 91
2020-01-15 08:00:00 7.4 24 Sudeste 36 Sur 0 -- -- 86
2020-01-15 07:00:00 7.7 30 Sur 42 Sur 0 -- -- 85
2020-01-15 06:00:00 7 29 Sur 36 Sur 0 -- -- 91
2020-01-15 05:00:00 6.3 24 Sudeste 30 Sudeste 0 -- -- 91
2020-01-15 04:00:00 6.5 19 Sudeste 36 Sur 0 -- -- 89
2020-01-15 03:00:00 7.2 29 Sur 43 Sur 0 -- -- 88
2020-01-15 02:00:00 7.5 32 Sur 40 Sur 0 -- -- 86
2020-01-15 01:00:00 7.6 27 Sur 42 Sur 0 -- -- 85
2020-01-15 00:00:00 7.5 27 Sur 40 Sur 0 -- -- 85
2020-01-14 23:00:00 7.2 10 Sudeste 21 Sudeste 0 -- -- 86
2020-01-14 22:00:00 7.2 15 Sur 26 Sur 0 -- -- 86
2020-01-14 21:00:00 6.7 18 Sudeste 21 Sudeste 0 -- -- 85
2020-01-14 20:00:00 7.2 13 Sudeste 19 Sudeste 0 -- -- 82
2020-01-14 19:00:00 8.4 14 Sudeste 22 Sudeste 0 -- -- 79
2020-01-14 18:00:00 9.4 13 Sur 21 Sur 0 -- -- 76
2020-01-14 17:00:00 10.2 16 Sudoeste 23 Sudoeste 0 -- -- 73
2020-01-14 16:00:00 9.9 17 Sudeste 22 Sudeste 0 -- -- 71
2020-01-14 15:00:00 10 15 Sur 23 Sudeste 0 -- -- 72
2020-01-14 14:00:00 11.1 13 Sudeste 19 Sudeste 0 -- -- 71
2020-01-14 13:00:00 10.7 11 Este 18 Este 0 -- -- 72
2020-01-14 12:00:00 9.6 10 Este 21 Sudeste 0 -- -- 76
2020-01-14 11:00:00 7.3 14 Sudeste 23 Este 0 -- -- 81
2020-01-14 10:00:00 6.2 14 Este 19 Este 0 -- -- 78
2020-01-14 09:00:00 4.5 11 Sudeste 13 Sudeste 0 -- -- 84
2020-01-14 08:00:00 3.9 9 Sudeste 10 Sudeste 0 -- -- 86
2020-01-14 07:00:00 3.9 7 Sudeste 10 Sudeste 0 -- -- 86
2020-01-14 06:00:00 3.7 10 Sudeste 10 Sudeste 0 -- -- 85
2020-01-14 05:00:00 4.3 4 Sudeste 7 Sudeste 0 -- -- 80
2020-01-14 04:00:00 4.3 3 Sudeste 4 Sudeste 0 -- -- 82
2020-01-14 03:00:00 4 3 Sudeste 5 Sudeste 0 -- -- 83
2020-01-14 02:00:00 4.7 2 Sudoeste 5 Sur 0 -- -- 78
2020-01-14 01:00:00 4.6 4 Sur 8 Oeste 0 -- -- 79
2020-01-14 00:00:00 4.7 5 Oeste 12 Noroeste 0 -- -- 78
2020-01-13 23:00:00 6.2 5 Sur 8 Sudoeste 0 -- -- 70
2020-01-13 22:00:00 5.7 5 Sudeste 14 Sur 0 -- -- 73
2020-01-13 21:00:00 6.7 6 Sur 14 Sudeste 0 -- -- 71
2020-01-13 20:00:00 7.2 12 Sudeste 14 Sudeste 0 -- -- 71
2020-01-13 19:00:00 9 3 Sudeste 6 Norte 0 -- -- 62
2020-01-13 18:00:00 10.2 7 Norte 19 Noroeste 0 -- -- 63
2020-01-13 17:00:00 10.9 14 Noroeste 21 Noroeste 0 -- -- 59
2020-01-13 16:00:00 11.5 15 Noroeste 23 Sudoeste 0 -- -- 57
2020-01-13 15:00:00 12 11 Oeste 25 Oeste 0 -- -- 54
2020-01-13 14:00:00 11.8 13 Oeste 22 Oeste 0 -- -- 48
2020-01-13 13:00:00 10.3 3 Este 13 Este 0 -- -- 67
2020-01-13 12:00:00 10 7 Este 12 Este 0 -- -- 66
2020-01-13 11:00:00 8.6 6 Sudeste 12 Sudeste 0 -- -- 69
2020-01-13 10:00:00 6.5 8 Sudeste 13 Sudeste 0 -- -- 70
2020-01-13 09:00:00 5.3 11 Sudeste 13 Sudeste 0 -- -- 73
2020-01-13 08:00:00 5.6 7 Sudeste 10 Este 0 -- -- 71
2020-01-13 07:00:00 5.6 10 Sudeste 14 Sudeste 0 -- -- 71
2020-01-13 06:00:00 5.6 10 Sudeste 14 Sudeste 0 -- -- 71
2020-01-13 05:00:00 5.5 10 Sudeste 17 Sudeste 0 -- -- 71
2020-01-13 04:00:00 6 14 Sudeste 17 Sudeste 0 -- -- 73
2020-01-13 03:00:00 5.7 13 Sudeste 14 Sudeste 0 -- -- 72
2020-01-13 02:00:00 5.7 11 Sudeste 15 Este 0 -- -- 70
2020-01-13 01:00:00 4.9 8 Sudeste 11 Este 0 -- -- 71
2020-01-13 00:00:00 5.9 6 Sudeste 8 Sudeste 0 -- -- 64
2020-01-12 23:00:00 6 2 Nordeste 7 Sudeste 0 -- -- 66
2020-01-12 22:00:00 6 2 Sur 4 Nordeste 0 -- -- 70
2020-01-12 21:00:00 6.4 0 Calma 12 Nordeste 0 -- -- 70
2020-01-12 20:00:00 6.9 11 Nordeste 13 Nordeste 0 -- -- 70
2020-01-12 19:00:00 7.7 12 Norte 13 Norte 0 -- -- 71
2020-01-12 18:00:00 10.7 11 Norte 17 Norte 0 -- -- 55
2020-01-12 17:00:00 12.6 8 Norte 14 Norte 0 -- -- 45
2020-01-12 16:00:00 12.4 9 Oeste 15 Noroeste 0 -- -- 42
2020-01-12 15:00:00 12.2 10 Noroeste 16 Noroeste 0 -- -- 51
2020-01-12 14:00:00 11.8 6 Noroeste 12 Oeste 0 -- -- 49
2020-01-12 13:00:00 11.2 4 Noroeste 9 Oeste 0 -- -- 50
2020-01-12 12:00:00 11.3 3 Sur 7 Sur 0 -- -- 55
2020-01-12 11:00:00 9.7 3 Sudeste 5 Sudeste 0 -- -- 64
2020-01-12 10:00:00 8.1 2 Sudeste 4 Sudeste 0 -- -- 62
2020-01-12 09:00:00 6 4 Sudeste 9 Sudeste 0 -- -- 65
2020-01-12 08:00:00 5.7 5 Sudeste 8 Este 0 -- -- 70
2020-01-12 07:00:00 6.6 6 Sudeste 10 Sudeste 0 -- -- 65
2020-01-12 06:00:00 5.6 4 Este 11 Este 0 -- -- 71
2020-01-12 05:00:00 7.1 10 Este 12 Este 0 -- -- 66
2020-01-12 04:00:00 7.1 9 Este 13 Este 0 -- -- 66
2020-01-12 03:00:00 6.5 10 Este 12 Este 0 -- -- 69
2020-01-12 02:00:00 6.3 6 Sudeste 8 Este 0 -- -- 70
2020-01-12 01:00:00 6 4 Sudeste 5 Sudeste 0 -- -- 72
2020-01-12 00:00:00 5.8 2 Sur 7 Este 0 -- -- 73
2020-01-11 23:00:00 5.8 5 Este 9 Este 0 -- -- 75
2020-01-11 22:00:00 5.9 8 Este 13 Nordeste 0 -- -- 75
2020-01-11 21:00:00 5.3 10 Nordeste 18 Nordeste 0 -- -- 77
2020-01-11 20:00:00 6.8 13 Nordeste 15 Nordeste 0 -- -- 69
2020-01-11 19:00:00 8.3 8 Norte 9 Norte 0 -- -- 64
2020-01-11 18:00:00 10.9 8 Este 14 Nordeste 0 -- -- 53
2020-01-11 17:00:00 11.9 8 Nordeste 17 Nordeste 0 -- -- 53
2020-01-11 16:00:00 11.7 11 Nordeste 19 Nordeste 0 -- -- 51
2020-01-11 15:00:00 11.3 11 Nordeste 23 Nordeste 0 -- -- 53
2020-01-11 14:00:00 11 14 Nordeste 21 Nordeste 0 -- -- 53
2020-01-11 13:00:00 9.8 15 Nordeste 22 Este 0 -- -- 60
2020-01-11 12:00:00 8.1 22 Este 30 Este 0 -- -- 66
2020-01-11 11:00:00 5.8 24 Nordeste 31 Nordeste 0 -- -- 74
2020-01-11 10:00:00 4.6 18 Este 25 Este 0 -- -- 75
2020-01-11 09:00:00 2 10 Este 17 Este 0 -- -- 80
2020-01-11 08:00:00 2.6 8 Este 13 Este 0 -- -- 77
2020-01-11 07:00:00 3.4 9 Este 13 Este 0 -- -- 72
2020-01-11 06:00:00 3.6 8 Este 13 Este 0 -- -- 72
2020-01-11 05:00:00 3.4 8 Este 15 Nordeste 0 -- -- 74
2020-01-11 04:00:00 3.4 11 Nordeste 16 Este 0 -- -- 75
2020-01-11 03:00:00 3.3 15 Este 19 Nordeste 0 -- -- 77
2020-01-11 02:00:00 3.5 8 Este 12 Este 0 -- -- 79
2020-01-11 01:00:00 3.4 13 Nordeste 15 Nordeste 0 -- -- 84
2020-01-11 00:00:00 3.6 13 Nordeste 15 Nordeste 0 -- -- 86
2020-01-10 23:00:00 3.9 13 Nordeste 18 Nordeste 0 -- -- 89
2020-01-10 22:00:00 4.4 16 Nordeste 19 Norte 0 -- -- 89
2020-01-10 21:00:00 5.1 13 Nordeste 18 Norte 0 -- -- 86
2020-01-10 20:00:00 5.6 16 Norte 22 Nordeste 0 -- -- 85
2020-01-10 19:00:00 6.6 16 Nordeste 24 Norte 0 -- -- 80
2020-01-10 18:00:00 9.3 18 Norte 28 Norte 0 -- -- 69
2020-01-10 17:00:00 10.7 19 Norte 28 Norte 0 -- -- 64
2020-01-10 16:00:00 11.1 21 Norte 28 Nordeste 0 -- -- 63
2020-01-10 15:00:00 10.3 17 Este 26 Este 0 -- -- 68
2020-01-10 14:00:00 8.4 11 Nordeste 23 Nordeste 0 -- -- 69
2020-01-10 13:00:00 7.3 17 Nordeste 24 Nordeste 0 -- -- 71
2020-01-10 12:00:00 6.5 13 Norte 25 Norte 0 -- -- 74
2020-01-10 11:00:00 5.1 21 Norte 29 Noroeste 0 -- -- 82
2020-01-10 10:00:00 3.8 13 Noroeste 19 Noroeste 0 -- -- 87
2020-01-10 09:00:00 2.8 16 Noroeste 20 Noroeste 0 -- -- 91
2020-01-10 08:00:00 3.4 16 Noroeste 22 Noroeste 0 -- -- 91
2020-01-10 07:00:00 3.6 15 Noroeste 26 Noroeste 0 -- -- 93
2020-01-10 06:00:00 4.4 14 Noroeste 23 Noroeste 0 -- -- 96
2020-01-10 05:00:00 4.6 6 Oeste 12 Noroeste 0 -- -- 97
2020-01-10 04:00:00 5.4 8 Noroeste 19 Noroeste 0 -- -- 97
2020-01-10 03:00:00 7 14 Noroeste 22 Noroeste 0 -- -- 96
2020-01-10 02:00:00 7.9 19 Noroeste 24 Oeste 0 -- -- 95
2020-01-10 01:00:00 7.9 12 Oeste 17 Oeste 0 -- -- 94
2020-01-10 00:00:00 7.6 8 Oeste 17 Oeste 0 -- -- 93
2020-01-09 23:00:00 7.9 10 Oeste 16 Oeste 0 -- -- 89
2020-01-09 22:00:00 8 6 Sudoeste 14 Oeste 0 -- -- 87
2020-01-09 21:00:00 7.8 10 Oeste 15 Oeste 0 -- -- 86
2020-01-09 20:00:00 8.6 11 Oeste 13 Oeste 0 -- -- 82
2020-01-09 19:00:00 9.8 8 Noroeste 13 Noroeste 0 -- -- 76
2020-01-09 18:00:00 12 12 Noroeste 15 Noroeste 0 -- -- 66
2020-01-09 17:00:00 13.1 9 Oeste 13 Oeste 0 -- -- 59
2020-01-09 16:00:00 12.9 7 Noroeste 13 Oeste 0 -- -- 59
2020-01-09 15:00:00 12.1 8 Noroeste 19 Noroeste 0 -- -- 63
2020-01-09 14:00:00 11.7 9 Noroeste 16 Noroeste 0 -- -- 63
2020-01-09 13:00:00 10.8 12 Oeste 15 Oeste 0 -- -- 65
2020-01-09 12:00:00 10.1 5 Sudoeste 9 Sur 0 -- -- 66
2020-01-09 11:00:00 8.6 0 Calma 6 Norte 0 -- -- 72
2020-01-09 10:00:00 5.7 6 Norte 8 Norte 0 -- -- 77
2020-01-09 09:00:00 6.2 2 Norte 7 Este 0 -- -- 73
2020-01-09 08:00:00 5.6 4 Este 7 Este 0 -- -- 73
2020-01-09 07:00:00 6 0 Calma 3 Sudeste 0 -- -- 70
2020-01-09 06:00:00 7.3 2 Sudeste 6 Sudeste 0 -- -- 64
2020-01-09 05:00:00 7.5 4 Sudeste 5 Sudeste 0 -- -- 64
2020-01-09 04:00:00 7.4 4 Este 6 Este 0 -- -- 65
2020-01-09 03:00:00 7.3 5 Este 8 Nordeste 0 -- -- 66
2020-01-09 02:00:00 7.4 6 Nordeste 7 Norte 0 -- -- 72
2020-01-09 01:00:00 8.5 0 Calma 3 Sur 0 -- -- 71
2020-01-09 00:00:00 8.4 2 Sudoeste 5 Sudoeste 0 -- -- 73
2020-01-08 23:00:00 8.2 5 Sudoeste 5 Sudoeste 0 -- -- 75
2020-01-08 22:00:00 8.1 0 Calma 7 Norte 0 -- -- 75
2020-01-08 21:00:00 8.8 5 Noroeste 11 Norte 0 -- -- 72
2020-01-08 20:00:00 9.6 10 Norte 14 Norte 0 -- -- 68
2020-01-08 19:00:00 12 11 Noroeste 13 Noroeste 0 -- -- 56
2020-01-08 18:00:00 16.3 3 Noroeste 5 Oeste 0 -- -- 43
2020-01-08 17:00:00 17.1 4 Oeste 7 Oeste 0 -- -- 36
2020-01-08 16:00:00 16.8 4 Noroeste 8 Oeste 0 -- -- 32
2020-01-08 15:00:00 16.1 4 Oeste 10 Noroeste 0 -- -- 46
2020-01-08 14:00:00 15.1 6 Noroeste 10 Noroeste 0 -- -- 40
2020-01-08 13:00:00 14.3 3 Oeste 6 Oeste 0 -- -- 48
2020-01-08 12:00:00 13.8 2 Sudeste 5 Nordeste 0 -- -- 46
2020-01-08 11:00:00 12 2 Este 4 Este 0 -- -- 49
2020-01-08 10:00:00 10.6 0 Calma 3 Norte 0 -- -- 65
2020-01-08 09:00:00 8 2 Noroeste 3 Sur 0 -- -- 73
2020-01-08 08:00:00 8 3 Sur 5 Sudeste 0 -- -- 70
2020-01-08 07:00:00 7.6 3 Sudeste 9 Nordeste 0 -- -- 74
2020-01-08 06:00:00 6.9 10 Nordeste 12 Nordeste 0 -- -- 79
2020-01-08 05:00:00 8.5 2 Nordeste 6 Nordeste 0 -- -- 72
2020-01-08 04:00:00 8.7 3 Este 4 Nordeste 0 -- -- 66
2020-01-08 03:00:00 8.8 0 Calma 6 Sudeste 0 -- -- 65
2020-01-08 02:00:00 7.4 5 Sudeste 6 Sudeste 0 -- -- 66
2020-01-08 01:00:00 7.7 0 Calma 5 Norte 0 -- -- 64
2020-01-08 00:00:00 8.3 2 Norte 12 Nordeste 0 -- -- 61
2020-01-07 23:00:00 8.8 10 Nordeste 13 Nordeste 0 -- -- 66
2020-01-07 22:00:00 8.7 8 Nordeste 9 Nordeste 0 -- -- 68
2020-01-07 21:00:00 9.9 0 Calma 9 Norte 0 -- -- 67
2020-01-07 20:00:00 11.1 8 Norte 10 Norte 0 -- -- 63
2020-01-07 19:00:00 12.2 5 Norte 8 Norte 0 -- -- 59
2020-01-07 18:00:00 13.2 6 Nordeste 9 Nordeste 0 -- -- 58
2020-01-07 17:00:00 15 9 Norte 13 Norte 0 -- -- 50
2020-01-07 16:00:00 15.5 9 Norte 13 Norte 0 -- -- 48
2020-01-07 15:00:00 15.1 9 Norte 15 Norte 0 -- -- 48
2020-01-07 14:00:00 14.4 9 Noroeste 14 Noroeste 0 -- -- 62
2020-01-07 13:00:00 14.1 2 Norte 10 Nordeste 0 -- -- 55
2020-01-07 12:00:00 12.7 5 Este 9 Este 0 -- -- 58
2020-01-07 11:00:00 9 8 Nordeste 9 Nordeste 0 -- -- 77
2020-01-07 10:00:00 7.1 5 Sudeste 7 Sudeste 0 -- -- 75
2020-01-07 09:00:00 5.9 2 Norte 5 Norte 0 -- -- 76
2020-01-07 08:00:00 4.2 2 Noroeste 6 Noroeste 0 -- -- 82
2020-01-07 07:00:00 4.9 3 Sudeste 5 Noroeste 0 -- -- 78
2020-01-07 06:00:00 5.2 5 Noroeste 24 Este 0 -- -- 76
2020-01-07 05:00:00 6.6 8 Sudeste 11 Nordeste 0 -- -- 72
2020-01-07 04:00:00 7 7 Este 11 Este 0 -- -- 71
2020-01-07 03:00:00 6.6 4 Sudeste 8 Este 0 -- -- 77
2020-01-07 02:00:00 6.8 4 Sudeste 9 Nordeste 0 -- -- 80
2020-01-07 01:00:00 6.9 4 Sudeste 9 Sudeste 0 -- -- 78
2020-01-07 00:00:00 6.4 5 Sudeste 6 Sudeste 0 -- -- 81
2020-01-06 23:00:00 7 2 Norte 5 Noroeste 0 -- -- 79
2020-01-06 22:00:00 6.9 3 Norte 17 Norte 0 -- -- 81
2020-01-06 21:00:00 8 0 Calma 9 Norte 0 -- -- 78
2020-01-06 20:00:00 8.3 7 Noroeste 13 Nordeste 0 -- -- 80
2020-01-06 19:00:00 9.8 13 Norte 15 Norte 0 -- -- 75
2020-01-06 18:00:00 13.1 9 Norte 9 Norte 0 -- -- 61
2020-01-06 17:00:00 14.5 4 Norte 8 Nordeste 0 -- -- 52
2020-01-06 16:00:00 14.4 5 Norte 10 Norte 0 -- -- 59
2020-01-06 15:00:00 14 5 Norte 15 Norte 0 -- -- 58
2020-01-06 14:00:00 13.5 2 Sudoeste 10 Sur 0 -- -- 61
2020-01-06 13:00:00 12.6 3 Este 5 Este 0 -- -- 65
2020-01-06 12:00:00 9.6 0 Calma 6 Oeste 0 -- -- 80
2020-01-06 11:00:00 8.5 3 Sudeste 6 Este 0 -- -- 84
2020-01-06 10:00:00 5.1 0 Calma 6 Noroeste 0 -- -- 89